| Date | Time | Temp. (oF) | Dew Point (oF) | Rel. Hum. (%) | Press. (in.) | Wind Dir. | Wind Speed (mph) | Hourly Rainfall (in.) |
|
|---|---|---|---|---|---|---|---|---|---|
| 1 | 11/16 | 00:00 | 50 | 46 | 89 | 29.99 | W | 0 | 0.00 |
| 2 | 11/15 | 23:00 | 51 | 46 | 84 | 29.97 | W | 0 | 0.00 |
| 3 | 11/15 | 22:00 | 54 | 46 | 77 | 29.97 | W | 0 | 0.00 |
| 4 | 11/15 | 21:00 | 58 | 49 | 73 | 29.97 | WNW | 0 | 0.00 |
| 5 | 11/15 | 20:00 | 56 | 48 | 75 | 29.96 | E | 0 | 0.00 |
| 6 | 11/15 | 19:00 | 60 | 48 | 67 | 29.95 | WSW | 0 | 0.00 |
| 7 | 11/15 | 18:00 | 63 | 49 | 61 | 29.93 | NNW | 0 | 0.00 |
| 8 | 11/15 | 17:00 | 67 | 49 | 54 | 29.91 | NNW | 0 | 0.00 |
| 9 | 11/15 | 16:00 | 70 | 48 | 47 | 29.90 | N | 0 | 0.00 |
| 10 | 11/15 | 15:00 | 71 | 53 | 55 | 29.89 | W | 5 | 0.00 |
| 11 | 11/15 | 14:00 | 70 | 53 | 56 | 29.89 | N | 4 | 0.00 |
| 12 | 11/15 | 13:00 | 69 | 56 | 65 | 29.91 | NNW | 6 | 0.00 |
| 13 | 11/15 | 12:00 | 66 | 55 | 69 | 29.93 | NNW | 7 | 0.00 |
| 14 | 11/15 | 11:00 | 64 | 55 | 73 | 29.95 | N | 4 | 0.00 |
| 15 | 11/15 | 10:00 | 61 | 55 | 82 | 29.96 | NNW | 7 | 0.00 |
| 16 | 11/15 | 09:00 | 56 | 53 | 92 | 29.96 | NNW | 0 | 0.00 |
| 17 | 11/15 | 08:00 | 52 | 51 | 99 | 29.95 | WSW | 0 | 0.00 |
| 18 | 11/15 | 07:00 | 50 | 49 | 99 | 29.93 | WNW | 0 | 0.00 |
| 19 | 11/15 | 06:00 | 51 | 50 | 97 | 29.92 | NW | 0 | 0.00 |
| 20 | 11/15 | 05:00 | 52 | 50 | 95 | 29.91 | NW | 0 | 0.00 |
| 21 | 11/15 | 04:00 | 54 | 52 | 93 | 29.90 | NNW | 0 | 0.00 |
| 22 | 11/15 | 03:00 | 55 | 53 | 93 | 29.91 | NW | 0 | 0.00 |
| 23 | 11/15 | 02:00 | 56 | 54 | 93 | 29.90 | NNW | 0 | 0.00 |
| 24 | 11/15 | 01:00 | 56 | 54 | 93 | 29.90 | WSW | 0 | 0.00 |